createdAt,value
2023-09-27T00:02:27.352Z,12.50
2023-09-27T00:06:31.849Z,12.50
2023-09-27T00:10:36.765Z,12.50
2023-09-27T00:14:41.467Z,12.50
2023-09-27T00:18:46.677Z,12.50
2023-09-27T00:22:52.649Z,12.40
2023-09-27T00:26:56.264Z,12.40
2023-09-27T00:31:03.337Z,12.40
2023-09-27T00:35:13.364Z,12.40
2023-09-27T00:39:19.167Z,12.30
2023-09-27T00:43:29.231Z,12.40
2023-09-27T00:47:35.237Z,12.30
2023-09-27T00:51:39.807Z,12.30
2023-09-27T00:55:44.675Z,12.30
2023-09-27T00:59:50.673Z,12.20
2023-09-27T01:04:00.072Z,12.10
2023-09-27T01:08:08.918Z,12.10
2023-09-27T01:12:11.982Z,12.10
2023-09-27T01:16:15.238Z,12.10
2023-09-27T01:20:20.180Z,12.00
2023-09-27T01:24:27.508Z,12.00
2023-09-27T01:28:32.227Z,11.90
2023-09-27T01:32:35.624Z,11.90
2023-09-27T01:36:38.721Z,11.80
2023-09-27T01:40:44.723Z,11.80
2023-09-27T01:44:47.746Z,11.80
2023-09-27T01:48:53.839Z,11.80
2023-09-27T01:53:06.737Z,11.80
2023-09-27T01:57:11.786Z,11.60
2023-09-27T02:01:18.224Z,11.60
2023-09-27T02:05:21.641Z,11.60
2023-09-27T02:09:24.787Z,11.60
2023-09-27T02:13:30.199Z,11.60
2023-09-27T02:17:33.307Z,11.50
2023-09-27T02:21:38.799Z,11.50
2023-09-27T02:25:49.555Z,11.50
2023-09-27T02:29:54.015Z,11.50
2023-09-27T02:33:58.347Z,11.50
2023-09-27T02:38:02.639Z,11.50
2023-09-27T02:42:05.943Z,11.50
2023-09-27T02:46:10.446Z,11.40
2023-09-27T02:50:16.136Z,11.40
2023-09-27T02:54:20.896Z,11.40
2023-09-27T02:58:24.076Z,11.40
2023-09-27T03:02:32.953Z,11.30
2023-09-27T03:06:37.328Z,11.30
2023-09-27T03:10:40.964Z,11.20
2023-09-27T03:14:47.462Z,11.20
2023-09-27T03:18:52.417Z,11.10
2023-09-27T03:22:55.661Z,11.10
2023-09-27T03:26:59.598Z,11.10
2023-09-27T03:31:06.605Z,11.10
2023-09-27T03:35:14.103Z,11.00
2023-09-27T03:39:23.617Z,11.00
2023-09-27T03:43:27.734Z,10.90
2023-09-27T03:47:31.633Z,10.80
2023-09-27T03:51:36.166Z,10.70
2023-09-27T03:55:43.000Z,10.70
2023-09-27T03:59:46.636Z,10.70
2023-09-27T04:03:49.732Z,10.60
2023-09-27T04:07:55.286Z,10.70
2023-09-27T04:12:01.537Z,10.70
2023-09-27T04:16:05.590Z,10.70
2023-09-27T04:20:22.386Z,10.70
2023-09-27T04:24:27.922Z,10.80
2023-09-27T04:28:33.585Z,10.70
2023-09-27T04:32:37.696Z,10.70
2023-09-27T04:36:42.403Z,10.60
2023-09-27T04:40:47.959Z,10.60
2023-09-27T04:44:53.507Z,10.60
2023-09-27T04:48:57.558Z,10.60
2023-09-27T04:53:03.033Z,10.50
2023-09-27T04:57:10.964Z,10.60
2023-09-27T05:01:16.129Z,10.70
2023-09-27T05:05:21.220Z,10.80
2023-09-27T05:09:25.308Z,11.00
2023-09-27T05:13:31.012Z,11.10
2023-09-27T05:17:35.922Z,11.20
2023-09-27T05:21:41.097Z,11.40
2023-09-27T05:25:45.241Z,11.50
2023-09-27T05:29:51.146Z,11.60
2023-09-27T05:33:54.587Z,11.70
2023-09-27T05:37:58.707Z,11.70
2023-09-27T05:42:01.735Z,11.80
2023-09-27T05:46:06.189Z,11.90
2023-09-27T05:50:10.797Z,12.10
2023-09-27T05:54:14.016Z,12.20
2023-09-27T05:58:17.202Z,12.40
2023-09-27T06:02:23.000Z,12.50
2023-09-27T06:06:26.193Z,12.60
2023-09-27T06:10:31.151Z,12.80
2023-09-27T06:14:34.214Z,13.00
2023-09-27T06:18:41.209Z,13.20
2023-09-27T06:22:47.010Z,13.30
2023-09-27T06:26:50.056Z,13.50
2023-09-27T06:30:56.211Z,13.70
2023-09-27T06:35:02.249Z,13.90
2023-09-27T06:39:08.795Z,14.10
2023-09-27T06:43:15.651Z,14.20
2023-09-27T06:47:21.575Z,14.20
2023-09-27T06:51:28.745Z,14.40
2023-09-27T06:55:34.792Z,14.60
2023-09-27T06:59:37.908Z,14.90
2023-09-27T07:03:41.884Z,15.20
2023-09-27T07:07:48.391Z,15.30
2023-09-27T07:11:54.297Z,15.50
2023-09-27T07:15:58.636Z,15.80
2023-09-27T07:20:01.787Z,16.00
2023-09-27T07:24:11.185Z,16.30
2023-09-27T07:28:18.685Z,16.50
2023-09-27T07:32:21.825Z,16.80
2023-09-27T07:36:26.795Z,16.90
2023-09-27T07:40:31.665Z,17.20
2023-09-27T07:44:35.196Z,17.50
2023-09-27T07:48:46.132Z,17.60
2023-09-27T07:52:51.347Z,17.80
2023-09-27T07:56:56.555Z,18.10
2023-09-27T08:00:59.847Z,18.50
2023-09-27T08:05:10.991Z,18.90
2023-09-27T08:09:38.727Z,19.30
2023-09-27T08:13:45.723Z,19.60
2023-09-27T08:17:57.346Z,19.80
2023-09-27T08:22:01.271Z,19.90
2023-09-27T08:26:08.205Z,20.00
2023-09-27T08:30:14.210Z,20.10
2023-09-27T08:34:17.368Z,20.30
2023-09-27T08:38:22.923Z,20.60
2023-09-27T08:42:27.020Z,21.00
2023-09-27T08:46:39.299Z,21.40
2023-09-27T08:50:45.856Z,21.80
2023-09-27T08:54:51.175Z,22.20
2023-09-27T08:58:57.051Z,22.80
2023-09-27T09:03:04.393Z,23.50
2023-09-27T09:07:10.570Z,23.80
2023-09-27T09:11:16.381Z,24.00
2023-09-27T09:15:30.120Z,24.10
2023-09-27T09:19:45.084Z,24.20
2023-09-27T09:23:51.055Z,24.40
2023-09-27T09:28:05.288Z,24.90
2023-09-27T09:32:11.464Z,25.30
2023-09-27T09:36:17.158Z,25.70
2023-09-27T09:40:20.471Z,26.40
2023-09-27T09:44:25.246Z,26.70
2023-09-27T09:48:30.984Z,26.70
2023-09-27T09:52:37.227Z,26.60
2023-09-27T09:56:54.080Z,26.60
2023-09-27T10:01:04.282Z,27.00
2023-09-27T10:05:09.201Z,27.40
2023-09-27T10:09:17.360Z,27.70
2023-09-27T10:13:21.092Z,27.70
2023-09-27T10:17:27.260Z,27.60
2023-09-27T10:21:31.955Z,27.60
2023-09-27T10:25:41.846Z,27.30
2023-09-27T10:29:59.597Z,27.00
2023-09-27T10:34:02.754Z,26.90
2023-09-27T10:38:11.490Z,26.70
2023-09-27T10:42:43.814Z,26.60
2023-09-27T10:46:50.110Z,26.80
2023-09-27T10:50:57.318Z,26.70
2023-09-27T10:55:17.754Z,26.90
2023-09-27T10:59:26.639Z,26.90
2023-09-27T11:03:31.215Z,26.80
2023-09-27T11:07:51.441Z,26.80
2023-09-27T11:12:00.754Z,26.70
2023-09-27T11:16:12.348Z,26.50
2023-09-27T11:20:17.100Z,26.40
2023-09-27T11:24:21.253Z,26.30
2023-09-27T11:28:25.891Z,26.60
2023-09-27T11:32:34.983Z,26.30
2023-09-27T11:36:42.875Z,26.40
2023-09-27T11:40:49.997Z,26.50
2023-09-27T11:45:09.800Z,26.30
2023-09-27T11:49:15.272Z,26.20
2023-09-27T11:53:19.623Z,26.20
2023-09-27T11:57:22.919Z,26.20
2023-09-27T12:01:26.070Z,26.30
2023-09-27T12:05:30.983Z,26.30
2023-09-27T12:09:37.151Z,26.30
2023-09-27T12:13:40.406Z,26.30
2023-09-27T12:17:47.807Z,26.30
2023-09-27T12:21:54.671Z,26.10
2023-09-27T12:26:00.288Z,26.10
2023-09-27T12:30:04.220Z,26.00
2023-09-27T12:34:07.409Z,26.00
2023-09-27T12:38:12.350Z,25.80
2023-09-27T12:42:18.795Z,25.80
2023-09-27T12:46:21.925Z,25.90
2023-09-27T12:50:28.298Z,25.80
2023-09-27T12:54:33.210Z,25.80
2023-09-27T12:58:40.736Z,25.80
2023-09-27T13:02:44.665Z,25.90
2023-09-27T13:06:50.516Z,26.00
2023-09-27T13:10:56.941Z,26.00
2023-09-27T13:15:02.298Z,26.00
2023-09-27T13:19:05.360Z,25.90
2023-09-27T13:23:08.481Z,25.80
2023-09-27T13:27:12.960Z,25.70
2023-09-27T13:31:16.422Z,25.60
2023-09-27T13:35:19.706Z,25.50
2023-09-27T13:39:30.722Z,25.50
2023-09-27T13:43:36.553Z,25.40
2023-09-27T13:47:45.165Z,25.40
2023-09-27T13:51:50.966Z,25.40
2023-09-27T13:56:01.436Z,25.50
2023-09-27T14:00:08.673Z,25.60
2023-09-27T14:04:11.964Z,25.60
2023-09-27T14:08:15.063Z,25.80
2023-09-27T14:12:18.306Z,25.90
2023-09-27T14:16:23.021Z,26.00
2023-09-27T14:20:26.552Z,26.00
2023-09-27T14:24:32.510Z,26.10
2023-09-27T14:28:35.625Z,26.00
2023-09-27T14:32:40.822Z,26.00
2023-09-27T14:36:47.163Z,26.10
2023-09-27T14:40:53.684Z,26.30
2023-09-27T14:44:59.017Z,26.30
2023-09-27T14:49:04.217Z,26.20
2023-09-27T14:53:07.867Z,26.10
2023-09-27T14:57:10.937Z,26.00
2023-09-27T15:01:18.708Z,26.00
2023-09-27T15:05:26.248Z,26.00
2023-09-27T15:09:32.294Z,25.80
2023-09-27T15:13:35.730Z,25.80
2023-09-27T15:17:44.297Z,25.70
2023-09-27T15:21:51.172Z,25.60
2023-09-27T15:25:59.859Z,25.60
2023-09-27T15:30:04.588Z,25.60
2023-09-27T15:34:07.591Z,25.60
2023-09-27T15:38:12.045Z,25.50
2023-09-27T15:42:16.935Z,25.40
2023-09-27T15:46:24.783Z,25.40
2023-09-27T15:50:28.096Z,25.40
2023-09-27T15:54:37.790Z,25.10
2023-09-27T15:58:43.533Z,24.80
2023-09-27T16:02:48.574Z,24.30
2023-09-27T16:06:51.975Z,24.00
2023-09-27T16:10:57.011Z,23.80
2023-09-27T16:15:00.128Z,23.60
2023-09-27T16:19:06.413Z,23.40
2023-09-27T16:23:10.631Z,23.10
2023-09-27T16:27:15.072Z,22.90
2023-09-27T16:31:18.201Z,22.70
2023-09-27T16:35:21.570Z,22.40
2023-09-27T16:39:24.579Z,22.10
2023-09-27T16:43:31.609Z,21.90
2023-09-27T16:47:35.071Z,21.70
2023-09-27T16:51:38.249Z,21.50
2023-09-27T16:55:42.796Z,21.30
2023-09-27T16:59:47.242Z,21.00
2023-09-27T17:03:50.462Z,20.80
2023-09-27T17:07:53.625Z,20.50
2023-09-27T17:11:59.444Z,20.20
2023-09-27T17:16:04.021Z,19.90
2023-09-27T17:20:11.538Z,19.60
2023-09-27T17:24:15.920Z,19.30
2023-09-27T17:28:20.310Z,19.10
2023-09-27T17:32:28.484Z,18.90
2023-09-27T17:36:31.735Z,18.70
2023-09-27T17:40:40.772Z,18.60
2023-09-27T17:44:46.364Z,18.40
2023-09-27T17:48:53.734Z,18.30
2023-09-27T17:53:01.989Z,18.10
2023-09-27T17:57:07.861Z,18.00
2023-09-27T18:01:10.924Z,17.90
2023-09-27T18:05:17.004Z,17.80
2023-09-27T18:09:22.387Z,17.60
2023-09-27T18:13:28.733Z,17.50
2023-09-27T18:17:31.994Z,17.40
2023-09-27T18:21:36.529Z,17.20
2023-09-27T18:25:45.055Z,17.00
2023-09-27T18:29:51.076Z,16.90
2023-09-27T18:33:54.387Z,16.80
2023-09-27T18:38:02.190Z,16.60
2023-09-27T18:42:05.581Z,16.50
2023-09-27T18:46:08.823Z,16.40
2023-09-27T18:50:16.999Z,16.30
2023-09-27T18:54:23.073Z,16.20
2023-09-27T18:58:27.779Z,16.00
2023-09-27T19:02:32.829Z,15.80
2023-09-27T19:06:39.479Z,15.70
2023-09-27T19:10:46.479Z,15.60
2023-09-27T19:14:54.434Z,15.50
2023-09-27T19:19:03.459Z,15.40
2023-09-27T19:23:07.831Z,15.20
2023-09-27T19:27:14.068Z,15.10
2023-09-27T19:31:20.050Z,15.10
2023-09-27T19:35:27.668Z,15.10
2023-09-27T19:39:33.508Z,15.00
2023-09-27T19:43:38.138Z,15.00
2023-09-27T19:47:44.369Z,15.00
2023-09-27T19:51:47.765Z,14.90
2023-09-27T19:55:51.000Z,14.80
2023-09-27T19:59:57.780Z,14.70
2023-09-27T20:04:02.381Z,14.70
2023-09-27T20:08:07.235Z,14.70
2023-09-27T20:12:15.448Z,14.60
2023-09-27T20:16:22.926Z,14.50
2023-09-27T20:20:26.581Z,14.30
2023-09-27T20:24:32.432Z,14.30
2023-09-27T20:28:37.947Z,14.20
2023-09-27T20:32:42.672Z,14.10
2023-09-27T20:36:45.789Z,14.00
2023-09-27T20:40:48.987Z,14.00
2023-09-27T20:44:52.093Z,13.90
2023-09-27T20:48:57.095Z,13.90
2023-09-27T20:53:06.284Z,13.90
2023-09-27T20:57:09.409Z,13.90
2023-09-27T21:01:26.084Z,13.90
2023-09-27T21:05:34.287Z,13.80
2023-09-27T21:09:38.622Z,13.80
2023-09-27T21:13:43.011Z,13.70
2023-09-27T21:17:46.226Z,13.70
2023-09-27T21:21:50.815Z,13.70
2023-09-27T21:25:53.882Z,13.70
2023-09-27T21:29:56.971Z,13.70
2023-09-27T21:34:00.054Z,13.60
2023-09-27T21:38:05.195Z,13.50
2023-09-27T21:42:08.292Z,13.40
2023-09-27T21:46:20.389Z,13.30
2023-09-27T21:50:23.786Z,13.30
2023-09-27T21:54:28.214Z,13.30
2023-09-27T21:58:39.059Z,13.10
2023-09-27T22:02:42.308Z,13.10
2023-09-27T22:06:46.507Z,12.90
2023-09-27T22:10:56.621Z,12.80
2023-09-27T22:14:59.959Z,12.80
2023-09-27T22:19:04.762Z,12.80
2023-09-27T22:23:24.404Z,12.80
2023-09-27T22:27:28.858Z,12.70
2023-09-27T22:31:32.957Z,12.70
2023-09-27T22:35:38.640Z,12.70
2023-09-27T22:39:44.807Z,12.70
2023-09-27T22:43:50.482Z,12.70
2023-09-27T22:47:53.994Z,12.70
2023-09-27T22:51:57.188Z,12.70
2023-09-27T22:56:00.346Z,12.60
2023-09-27T23:00:10.872Z,12.60
2023-09-27T23:04:16.307Z,12.60
2023-09-27T23:08:30.442Z,12.60
2023-09-27T23:12:37.365Z,12.50
2023-09-27T23:16:49.175Z,12.50
2023-09-27T23:20:52.871Z,12.30
2023-09-27T23:25:28.272Z,12.30
2023-09-27T23:29:37.910Z,12.30
2023-09-27T23:33:44.632Z,12.30
2023-09-27T23:37:48.414Z,12.20
2023-09-27T23:41:51.799Z,12.10
2023-09-27T23:45:55.154Z,12.00
2023-09-27T23:50:02.027Z,11.90
2023-09-27T23:54:08.149Z,11.90
2023-09-27T23:58:14.026Z,11.80
